Bom Pastor, Brazil
Current Conditions -  °F | °C
As of 7:00 PM on Thursday 27 Nov 2014 (Local Time) from SBVT Reporting Station
Broken Clouds Broken Clouds  
Wind Chill: 79°   Ceiling: 9000
Heat Index: 81°   Visibility: 6mi
Dew Point: 68°   Wind: 23mph
Humidity: 69%   Direction: 50°NE
Pressure: 29.8"   Gusts: NA
Location:  19.27°S, 41.04°W
Report Text: SBVT 272100Z 05020KT 9999 FEW040 BKN090 26/20 Q1009
Loading
Personal Weather Stations






























Interactive Weather Map New forecast layout! Learn more

10-Day Weather Forecast

Advertisements
Track Severe Weather on mobile